<?xml version="1.0" encoding="UTF-8" standalone="no" ?>
<gpx xmlns="http://www.topografix.com/GPX/1/1" xmlns:xsi="http://www.w3.org/2001/XMLSchema-instance" xsi:schemaLocation="http://www.topografix.com/GPX/1/1 http://www.topografix.com/GPX/1/1/gpx.xsd" version="1.1" creator="VisuGPX - https://www.visugpx.com">
  <metadata>
    <name>buron de prat de bouc raveyrol</name>
  </metadata>
  <trk>
    <name><![CDATA[RAQPDB buron de raveyrol2019]]></name>
    <extensions>
      <line xmlns="http://www.topografix.com/GPX/gpx_style/0/2">
        <color>0000FF</color>
        <width>4</width>
      </line>
    </extensions>
    <trkseg>
      <trkpt lat="45.05323" lon="2.79296">
        <ele>1385.5</ele>
        <time>2015-10-05T11:33:20Z</time>
      </trkpt>
      <trkpt lat="45.05324" lon="2.79296">
        <ele>1385.3</ele>
        <time>2015-10-05T11:33:21Z</time>
      </trkpt>
      <trkpt lat="45.05337" lon="2.79292">
        <ele>1383.5</ele>
        <time>2015-10-05T11:33:25Z</time>
      </trkpt>
      <trkpt lat="45.05352" lon="2.79259">
        <ele>1382.2</ele>
        <time>2015-10-05T11:33:27Z</time>
      </trkpt>
      <trkpt lat="45.05373" lon="2.79191">
        <ele>1378.3</ele>
        <time>2015-10-05T11:33:29Z</time>
      </trkpt>
      <trkpt lat="45.05436" lon="2.79115">
        <ele>1374.8</ele>
        <time>2015-10-05T11:33:31Z</time>
      </trkpt>
      <trkpt lat="45.05464" lon="2.79151">
        <ele>1373.5</ele>
        <time>2015-10-05T11:33:33Z</time>
      </trkpt>
      <trkpt lat="45.05487" lon="2.79218">
        <ele>1371.2</ele>
        <time>2015-10-05T11:33:35Z</time>
      </trkpt>
      <trkpt lat="45.05509" lon="2.79257">
        <ele>1369.2</ele>
        <time>2015-10-05T11:33:37Z</time>
      </trkpt>
      <trkpt lat="45.05526" lon="2.79284">
        <ele>1368.1</ele>
        <time>2015-10-05T11:33:40Z</time>
      </trkpt>
      <trkpt lat="45.05542" lon="2.79316">
        <ele>1364.8</ele>
        <time>2015-10-05T11:33:43Z</time>
      </trkpt>
      <trkpt lat="45.05558" lon="2.79352">
        <ele>1363.4</ele>
        <time>2015-10-05T11:33:48Z</time>
      </trkpt>
      <trkpt lat="45.05569" lon="2.79383">
        <ele>1361.4</ele>
        <time>2015-10-05T11:33:55Z</time>
      </trkpt>
      <trkpt lat="45.05573" lon="2.79405">
        <ele>1360.1</ele>
        <time>2015-10-05T11:33:59Z</time>
      </trkpt>
      <trkpt lat="45.05579" lon="2.79426">
        <ele>1359.1</ele>
        <time>2015-10-05T11:34:04Z</time>
      </trkpt>
      <trkpt lat="45.05593" lon="2.79445">
        <ele>1358.2</ele>
        <time>2015-10-05T11:34:08Z</time>
      </trkpt>
      <trkpt lat="45.05593" lon="2.79464">
        <ele>1354.8</ele>
        <time>2015-10-05T11:34:12Z</time>
      </trkpt>
      <trkpt lat="45.05607" lon="2.79486">
        <ele>1352</ele>
        <time>2015-10-05T11:36:20Z</time>
      </trkpt>
      <trkpt lat="45.05616" lon="2.79496">
        <ele>1350.5</ele>
        <time>2015-10-05T11:36:23Z</time>
      </trkpt>
      <trkpt lat="45.05627" lon="2.79499">
        <ele>1350.1</ele>
        <time>2015-10-05T11:36:26Z</time>
      </trkpt>
      <trkpt lat="45.05638" lon="2.79508">
        <ele>1349.4</ele>
        <time>2015-10-05T11:36:29Z</time>
      </trkpt>
      <trkpt lat="45.05646" lon="2.79518">
        <ele>1348.8</ele>
        <time>2015-10-05T11:36:31Z</time>
      </trkpt>
      <trkpt lat="45.05656" lon="2.79528">
        <ele>1348.6</ele>
        <time>2015-10-05T11:36:34Z</time>
      </trkpt>
      <trkpt lat="45.05666" lon="2.79541">
        <ele>1347.5</ele>
        <time>2015-10-05T11:36:37Z</time>
      </trkpt>
      <trkpt lat="45.05668" lon="2.79557">
        <ele>1345.5</ele>
        <time>2015-10-05T11:36:40Z</time>
      </trkpt>
      <trkpt lat="45.05664" lon="2.79574">
        <ele>1342.8</ele>
        <time>2015-10-05T11:36:43Z</time>
      </trkpt>
      <trkpt lat="45.05663" lon="2.79589">
        <ele>1340.9</ele>
        <time>2015-10-05T11:36:45Z</time>
      </trkpt>
      <trkpt lat="45.05667" lon="2.79606">
        <ele>1338.5</ele>
        <time>2015-10-05T11:36:47Z</time>
      </trkpt>
      <trkpt lat="45.05673" lon="2.79619">
        <ele>1335.6</ele>
        <time>2015-10-05T11:36:50Z</time>
      </trkpt>
      <trkpt lat="45.05682" lon="2.79629">
        <ele>1331.7</ele>
        <time>2015-10-05T11:36:53Z</time>
      </trkpt>
      <trkpt lat="45.05693" lon="2.79625">
        <ele>1329.4</ele>
        <time>2015-10-05T11:36:57Z</time>
      </trkpt>
      <trkpt lat="45.05699" lon="2.79612">
        <ele>1330.3</ele>
        <time>2015-10-05T11:37:00Z</time>
      </trkpt>
      <trkpt lat="45.05706" lon="2.79603">
        <ele>1329.1</ele>
        <time>2015-10-05T11:37:04Z</time>
      </trkpt>
      <trkpt lat="45.05712" lon="2.79591">
        <ele>1327.8</ele>
        <time>2015-10-05T11:37:07Z</time>
      </trkpt>
      <trkpt lat="45.05721" lon="2.79581">
        <ele>1324.7</ele>
        <time>2015-10-05T11:37:10Z</time>
      </trkpt>
      <trkpt lat="45.05727" lon="2.79571">
        <ele>1323.5</ele>
        <time>2015-10-05T11:37:12Z</time>
      </trkpt>
      <trkpt lat="45.05733" lon="2.79559">
        <ele>1322</ele>
        <time>2015-10-05T11:37:14Z</time>
      </trkpt>
      <trkpt lat="45.05737" lon="2.79544">
        <ele>1321.1</ele>
        <time>2015-10-05T11:37:16Z</time>
      </trkpt>
      <trkpt lat="45.05743" lon="2.79527">
        <ele>1319.1</ele>
        <time>2015-10-05T11:37:18Z</time>
      </trkpt>
      <trkpt lat="45.05751" lon="2.79515">
        <ele>1316.6</ele>
        <time>2015-10-05T11:37:20Z</time>
      </trkpt>
      <trkpt lat="45.05763" lon="2.7951">
        <ele>1313.2</ele>
        <time>2015-10-05T11:37:23Z</time>
      </trkpt>
      <trkpt lat="45.05773" lon="2.79507">
        <ele>1310.5</ele>
        <time>2015-10-05T11:37:25Z</time>
      </trkpt>
      <trkpt lat="45.05786" lon="2.79501">
        <ele>1307.5</ele>
        <time>2015-10-05T11:37:28Z</time>
      </trkpt>
      <trkpt lat="45.05797" lon="2.79496">
        <ele>1304.8</ele>
        <time>2015-10-05T11:37:30Z</time>
      </trkpt>
      <trkpt lat="45.05808" lon="2.79488">
        <ele>1302.7</ele>
        <time>2015-10-05T11:37:32Z</time>
      </trkpt>
      <trkpt lat="45.05818" lon="2.79481">
        <ele>1302.6</ele>
        <time>2015-10-05T11:37:34Z</time>
      </trkpt>
      <trkpt lat="45.05826" lon="2.79476">
        <ele>1302.8</ele>
        <time>2015-10-05T11:37:36Z</time>
      </trkpt>
      <trkpt lat="45.05836" lon="2.79471">
        <ele>1303</ele>
        <time>2015-10-05T11:37:38Z</time>
      </trkpt>
      <trkpt lat="45.05845" lon="2.79466">
        <ele>1303.3</ele>
        <time>2015-10-05T11:37:40Z</time>
      </trkpt>
      <trkpt lat="45.05856" lon="2.7946">
        <ele>1303.6</ele>
        <time>2015-10-05T11:37:42Z</time>
      </trkpt>
      <trkpt lat="45.05868" lon="2.79457">
        <ele>1303.4</ele>
        <time>2015-10-05T11:37:44Z</time>
      </trkpt>
      <trkpt lat="45.0588" lon="2.79456">
        <ele>1303</ele>
        <time>2015-10-05T11:37:46Z</time>
      </trkpt>
      <trkpt lat="45.05892" lon="2.79459">
        <ele>1302</ele>
        <time>2015-10-05T11:37:48Z</time>
      </trkpt>
      <trkpt lat="45.05906" lon="2.79463">
        <ele>1301.6</ele>
        <time>2015-10-05T11:37:50Z</time>
      </trkpt>
      <trkpt lat="45.05919" lon="2.79469">
        <ele>1300.6</ele>
        <time>2015-10-05T11:37:52Z</time>
      </trkpt>
      <trkpt lat="45.05933" lon="2.79472">
        <ele>1299.5</ele>
        <time>2015-10-05T11:37:54Z</time>
      </trkpt>
      <trkpt lat="45.05947" lon="2.79467">
        <ele>1300.1</ele>
        <time>2015-10-05T11:37:56Z</time>
      </trkpt>
      <trkpt lat="45.05959" lon="2.79462">
        <ele>1301</ele>
        <time>2015-10-05T11:37:58Z</time>
      </trkpt>
      <trkpt lat="45.0597" lon="2.79459">
        <ele>1301.4</ele>
        <time>2015-10-05T11:38:00Z</time>
      </trkpt>
      <trkpt lat="45.0598" lon="2.79459">
        <ele>1301.4</ele>
        <time>2015-10-05T11:38:02Z</time>
      </trkpt>
      <trkpt lat="45.0599" lon="2.79459">
        <ele>1301.4</ele>
        <time>2015-10-05T11:38:04Z</time>
      </trkpt>
      <trkpt lat="45.05999" lon="2.79461">
        <ele>1301</ele>
        <time>2015-10-05T11:38:06Z</time>
      </trkpt>
      <trkpt lat="45.06008" lon="2.79467">
        <ele>1301.7</ele>
        <time>2015-10-05T11:38:08Z</time>
      </trkpt>
      <trkpt lat="45.06019" lon="2.79475">
        <ele>1302.7</ele>
        <time>2015-10-05T11:38:11Z</time>
      </trkpt>
      <trkpt lat="45.06029" lon="2.79485">
        <ele>1302.9</ele>
        <time>2015-10-05T11:38:14Z</time>
      </trkpt>
      <trkpt lat="45.06038" lon="2.79495">
        <ele>1302.4</ele>
        <time>2015-10-05T11:38:17Z</time>
      </trkpt>
      <trkpt lat="45.06048" lon="2.79502">
        <ele>1302.5</ele>
        <time>2015-10-05T11:38:20Z</time>
      </trkpt>
      <trkpt lat="45.06056" lon="2.79509">
        <ele>1302.5</ele>
        <time>2015-10-05T11:38:23Z</time>
      </trkpt>
      <trkpt lat="45.06065" lon="2.79515">
        <ele>1303.2</ele>
        <time>2015-10-05T11:38:26Z</time>
      </trkpt>
      <trkpt lat="45.06076" lon="2.79521">
        <ele>1304.1</ele>
        <time>2015-10-05T11:38:29Z</time>
      </trkpt>
      <trkpt lat="45.06086" lon="2.79528">
        <ele>1304.6</ele>
        <time>2015-10-05T11:38:32Z</time>
      </trkpt>
      <trkpt lat="45.06095" lon="2.79535">
        <ele>1305.5</ele>
        <time>2015-10-05T11:38:35Z</time>
      </trkpt>
      <trkpt lat="45.06104" lon="2.79545">
        <ele>1305.6</ele>
        <time>2015-10-05T11:38:38Z</time>
      </trkpt>
      <trkpt lat="45.06113" lon="2.79553">
        <ele>1306.3</ele>
        <time>2015-10-05T11:38:41Z</time>
      </trkpt>
      <trkpt lat="45.06121" lon="2.79562">
        <ele>1307.2</ele>
        <time>2015-10-05T11:38:44Z</time>
      </trkpt>
      <trkpt lat="45.0613" lon="2.79572">
        <ele>1307.6</ele>
        <time>2015-10-05T11:38:47Z</time>
      </trkpt>
      <trkpt lat="45.06138" lon="2.79584">
        <ele>1306.7</ele>
        <time>2015-10-05T11:38:50Z</time>
      </trkpt>
      <trkpt lat="45.06146" lon="2.79596">
        <ele>1307.4</ele>
        <time>2015-10-05T11:38:53Z</time>
      </trkpt>
      <trkpt lat="45.06155" lon="2.79608">
        <ele>1308</ele>
        <time>2015-10-05T11:38:56Z</time>
      </trkpt>
      <trkpt lat="45.06163" lon="2.79619">
        <ele>1308.4</ele>
        <time>2015-10-05T11:38:59Z</time>
      </trkpt>
      <trkpt lat="45.0617" lon="2.79628">
        <ele>1309.3</ele>
        <time>2015-10-05T11:39:02Z</time>
      </trkpt>
      <trkpt lat="45.06177" lon="2.79641">
        <ele>1309.3</ele>
        <time>2015-10-05T11:39:06Z</time>
      </trkpt>
      <trkpt lat="45.06184" lon="2.79652">
        <ele>1309.5</ele>
        <time>2015-10-05T11:39:09Z</time>
      </trkpt>
      <trkpt lat="45.06193" lon="2.79663">
        <ele>1309.5</ele>
        <time>2015-10-05T11:39:12Z</time>
      </trkpt>
      <trkpt lat="45.06201" lon="2.79674">
        <ele>1309.9</ele>
        <time>2015-10-05T11:39:15Z</time>
      </trkpt>
      <trkpt lat="45.06208" lon="2.79687">
        <ele>1309.7</ele>
        <time>2015-10-05T11:39:18Z</time>
      </trkpt>
      <trkpt lat="45.06216" lon="2.79702">
        <ele>1309.7</ele>
        <time>2015-10-05T11:39:21Z</time>
      </trkpt>
      <trkpt lat="45.06223" lon="2.79716">
        <ele>1309.9</ele>
        <time>2015-10-05T11:39:24Z</time>
      </trkpt>
      <trkpt lat="45.0623" lon="2.7973">
        <ele>1310.6</ele>
        <time>2015-10-05T11:39:27Z</time>
      </trkpt>
      <trkpt lat="45.06236" lon="2.79743">
        <ele>1311.1</ele>
        <time>2015-10-05T11:39:30Z</time>
      </trkpt>
      <trkpt lat="45.0624" lon="2.79756">
        <ele>1311.1</ele>
        <time>2015-10-05T11:39:33Z</time>
      </trkpt>
      <trkpt lat="45.06244" lon="2.79769">
        <ele>1311.3</ele>
        <time>2015-10-05T11:39:36Z</time>
      </trkpt>
      <trkpt lat="45.06248" lon="2.79782">
        <ele>1311.4</ele>
        <time>2015-10-05T11:39:39Z</time>
      </trkpt>
      <trkpt lat="45.06252" lon="2.79794">
        <ele>1311.8</ele>
        <time>2015-10-05T11:39:42Z</time>
      </trkpt>
      <trkpt lat="45.06259" lon="2.79807">
        <ele>1312.9</ele>
        <time>2015-10-05T11:39:46Z</time>
      </trkpt>
      <trkpt lat="45.06268" lon="2.79819">
        <ele>1314.1</ele>
        <time>2015-10-05T11:39:50Z</time>
      </trkpt>
      <trkpt lat="45.06276" lon="2.7983">
        <ele>1314.9</ele>
        <time>2015-10-05T11:39:54Z</time>
      </trkpt>
      <trkpt lat="45.06284" lon="2.79841">
        <ele>1316</ele>
        <time>2015-10-05T11:39:58Z</time>
      </trkpt>
      <trkpt lat="45.06291" lon="2.7985">
        <ele>1317</ele>
        <time>2015-10-05T11:40:01Z</time>
      </trkpt>
      <trkpt lat="45.06297" lon="2.79859">
        <ele>1317.6</ele>
        <time>2015-10-05T11:40:04Z</time>
      </trkpt>
      <trkpt lat="45.06304" lon="2.79871">
        <ele>1318.7</ele>
        <time>2015-10-05T11:40:07Z</time>
      </trkpt>
      <trkpt lat="45.06308" lon="2.79882">
        <ele>1319.5</ele>
        <time>2015-10-05T11:40:10Z</time>
      </trkpt>
      <trkpt lat="45.06312" lon="2.79894">
        <ele>1320</ele>
        <time>2015-10-05T11:40:13Z</time>
      </trkpt>
      <trkpt lat="45.06316" lon="2.79906">
        <ele>1320.5</ele>
        <time>2015-10-05T11:40:16Z</time>
      </trkpt>
      <trkpt lat="45.06321" lon="2.79917">
        <ele>1321.3</ele>
        <time>2015-10-05T11:40:19Z</time>
      </trkpt>
      <trkpt lat="45.06326" lon="2.79929">
        <ele>1322</ele>
        <time>2015-10-05T11:40:22Z</time>
      </trkpt>
      <trkpt lat="45.06331" lon="2.79941">
        <ele>1322.6</ele>
        <time>2015-10-05T11:40:25Z</time>
      </trkpt>
      <trkpt lat="45.06336" lon="2.79952">
        <ele>1322.9</ele>
        <time>2015-10-05T11:40:28Z</time>
      </trkpt>
      <trkpt lat="45.06342" lon="2.79962">
        <ele>1323.3</ele>
        <time>2015-10-05T11:40:31Z</time>
      </trkpt>
      <trkpt lat="45.06349" lon="2.79973">
        <ele>1323.8</ele>
        <time>2015-10-05T11:40:34Z</time>
      </trkpt>
      <trkpt lat="45.06357" lon="2.79984">
        <ele>1324.8</ele>
        <time>2015-10-05T11:40:38Z</time>
      </trkpt>
      <trkpt lat="45.06362" lon="2.79995">
        <ele>1325.3</ele>
        <time>2015-10-05T11:40:41Z</time>
      </trkpt>
      <trkpt lat="45.06369" lon="2.80006">
        <ele>1326.1</ele>
        <time>2015-10-05T11:40:44Z</time>
      </trkpt>
      <trkpt lat="45.06375" lon="2.80016">
        <ele>1326.6</ele>
        <time>2015-10-05T11:40:47Z</time>
      </trkpt>
      <trkpt lat="45.06383" lon="2.80028">
        <ele>1327.1</ele>
        <time>2015-10-05T11:40:50Z</time>
      </trkpt>
      <trkpt lat="45.06389" lon="2.80039">
        <ele>1327.2</ele>
        <time>2015-10-05T11:40:52Z</time>
      </trkpt>
      <trkpt lat="45.06395" lon="2.80049">
        <ele>1327.1</ele>
        <time>2015-10-05T11:40:54Z</time>
      </trkpt>
      <trkpt lat="45.06403" lon="2.80057">
        <ele>1326.9</ele>
        <time>2015-10-05T11:40:56Z</time>
      </trkpt>
      <trkpt lat="45.06411" lon="2.80067">
        <ele>1326.1</ele>
        <time>2015-10-05T11:40:58Z</time>
      </trkpt>
      <trkpt lat="45.06419" lon="2.80076">
        <ele>1325.6</ele>
        <time>2015-10-05T11:41:00Z</time>
      </trkpt>
      <trkpt lat="45.06426" lon="2.80088">
        <ele>1325.2</ele>
        <time>2015-10-05T11:41:02Z</time>
      </trkpt>
      <trkpt lat="45.06434" lon="2.80105">
        <ele>1323</ele>
        <time>2015-10-05T11:41:04Z</time>
      </trkpt>
      <trkpt lat="45.06441" lon="2.80122">
        <ele>1320.4</ele>
        <time>2015-10-05T11:41:06Z</time>
      </trkpt>
      <trkpt lat="45.06445" lon="2.80139">
        <ele>1318</ele>
        <time>2015-10-05T11:41:08Z</time>
      </trkpt>
      <trkpt lat="45.06449" lon="2.80153">
        <ele>1317.4</ele>
        <time>2015-10-05T11:41:10Z</time>
      </trkpt>
      <trkpt lat="45.06454" lon="2.80166">
        <ele>1316.4</ele>
        <time>2015-10-05T11:41:12Z</time>
      </trkpt>
      <trkpt lat="45.06461" lon="2.8018">
        <ele>1314.8</ele>
        <time>2015-10-05T11:41:14Z</time>
      </trkpt>
      <trkpt lat="45.06469" lon="2.80195">
        <ele>1313.2</ele>
        <time>2015-10-05T11:41:16Z</time>
      </trkpt>
      <trkpt lat="45.06487" lon="2.80209">
        <ele>1311.1</ele>
        <time>2015-10-05T11:41:18Z</time>
      </trkpt>
      <trkpt lat="45.06501" lon="2.80219">
        <ele>1309.3</ele>
        <time>2015-10-05T11:57:34Z</time>
      </trkpt>
      <trkpt lat="45.06485" lon="2.80243">
        <ele>1309.3</ele>
        <time>2015-10-05T11:57:37Z</time>
      </trkpt>
      <trkpt lat="45.0648" lon="2.80255">
        <ele>1308.6</ele>
        <time>2015-10-05T11:57:39Z</time>
      </trkpt>
      <trkpt lat="45.06474" lon="2.80265">
        <ele>1307.9</ele>
        <time>2015-10-05T11:57:41Z</time>
      </trkpt>
      <trkpt lat="45.06466" lon="2.80275">
        <ele>1307.2</ele>
        <time>2015-10-05T11:57:43Z</time>
      </trkpt>
      <trkpt lat="45.06457" lon="2.80287">
        <ele>1306.2</ele>
        <time>2015-10-05T11:57:45Z</time>
      </trkpt>
      <trkpt lat="45.06447" lon="2.803">
        <ele>1304.7</ele>
        <time>2015-10-05T11:57:47Z</time>
      </trkpt>
      <trkpt lat="45.06438" lon="2.80316">
        <ele>1302.8</ele>
        <time>2015-10-05T11:57:49Z</time>
      </trkpt>
      <trkpt lat="45.06429" lon="2.80334">
        <ele>1300.4</ele>
        <time>2015-10-05T11:57:51Z</time>
      </trkpt>
      <trkpt lat="45.06418" lon="2.8035">
        <ele>1297.7</ele>
        <time>2015-10-05T11:57:53Z</time>
      </trkpt>
      <trkpt lat="45.06406" lon="2.80358">
        <ele>1295</ele>
        <time>2015-10-05T11:57:55Z</time>
      </trkpt>
      <trkpt lat="45.06392" lon="2.80355">
        <ele>1293.5</ele>
        <time>2015-10-05T11:57:57Z</time>
      </trkpt>
      <trkpt lat="45.06377" lon="2.8035">
        <ele>1291.7</ele>
        <time>2015-10-05T11:57:59Z</time>
      </trkpt>
      <trkpt lat="45.0636" lon="2.80347">
        <ele>1288.8</ele>
        <time>2015-10-05T11:58:01Z</time>
      </trkpt>
      <trkpt lat="45.06342" lon="2.80345">
        <ele>1285.2</ele>
        <time>2015-10-05T11:58:03Z</time>
      </trkpt>
      <trkpt lat="45.06326" lon="2.80342">
        <ele>1282.6</ele>
        <time>2015-10-05T11:58:05Z</time>
      </trkpt>
      <trkpt lat="45.06314" lon="2.80341">
        <ele>1280.8</ele>
        <time>2015-10-05T11:58:07Z</time>
      </trkpt>
      <trkpt lat="45.06305" lon="2.80348">
        <ele>1278.9</ele>
        <time>2015-10-05T11:58:09Z</time>
      </trkpt>
      <trkpt lat="45.06286" lon="2.80342">
        <ele>1276.8</ele>
        <time>2015-10-05T11:58:11Z</time>
      </trkpt>
      <trkpt lat="45.0627" lon="2.80342">
        <ele>1274.8</ele>
        <time>2015-10-05T11:58:14Z</time>
      </trkpt>
      <trkpt lat="45.06243" lon="2.80316">
        <ele>1274.4</ele>
        <time>2015-10-05T11:58:17Z</time>
      </trkpt>
      <trkpt lat="45.06233" lon="2.80296">
        <ele>1274.8</ele>
        <time>2015-10-05T11:58:32Z</time>
      </trkpt>
      <trkpt lat="45.06226" lon="2.80252">
        <ele>1273.5</ele>
        <time>2015-10-05T11:58:35Z</time>
      </trkpt>
      <trkpt lat="45.06206" lon="2.80268">
        <ele>1274.6</ele>
        <time>2015-10-05T11:58:38Z</time>
      </trkpt>
      <trkpt lat="45.0619" lon="2.80272">
        <ele>1275.8</ele>
        <time>2015-10-05T11:58:42Z</time>
      </trkpt>
      <trkpt lat="45.06178" lon="2.8028">
        <ele>1276.7</ele>
        <time>2015-10-05T11:58:47Z</time>
      </trkpt>
      <trkpt lat="45.06166" lon="2.80279">
        <ele>1277.3</ele>
        <time>2015-10-05T11:59:44Z</time>
      </trkpt>
      <trkpt lat="45.06164" lon="2.80264">
        <ele>1277.8</ele>
        <time>2015-10-05T11:59:49Z</time>
      </trkpt>
      <trkpt lat="45.06163" lon="2.8025">
        <ele>1277.8</ele>
        <time>2015-10-05T11:59:53Z</time>
      </trkpt>
      <trkpt lat="45.06162" lon="2.80235">
        <ele>1276.8</ele>
        <time>2015-10-05T11:59:58Z</time>
      </trkpt>
      <trkpt lat="45.06159" lon="2.80221">
        <ele>1276.3</ele>
        <time>2015-10-05T12:00:01Z</time>
      </trkpt>
      <trkpt lat="45.06152" lon="2.80202">
        <ele>1276.5</ele>
        <time>2015-10-05T12:00:04Z</time>
      </trkpt>
      <trkpt lat="45.06148" lon="2.8019">
        <ele>1276.5</ele>
        <time>2015-10-05T12:00:06Z</time>
      </trkpt>
      <trkpt lat="45.06144" lon="2.80177">
        <ele>1276.2</ele>
        <time>2015-10-05T12:00:08Z</time>
      </trkpt>
      <trkpt lat="45.06139" lon="2.80164">
        <ele>1276</ele>
        <time>2015-10-05T12:00:11Z</time>
      </trkpt>
      <trkpt lat="45.06134" lon="2.80154">
        <ele>1277.4</ele>
        <time>2015-10-05T12:00:14Z</time>
      </trkpt>
      <trkpt lat="45.06126" lon="2.80142">
        <ele>1279</ele>
        <time>2015-10-05T12:00:19Z</time>
      </trkpt>
      <trkpt lat="45.06121" lon="2.80131">
        <ele>1279.2</ele>
        <time>2015-10-05T12:00:24Z</time>
      </trkpt>
      <trkpt lat="45.06115" lon="2.80122">
        <ele>1279.5</ele>
        <time>2015-10-05T12:00:28Z</time>
      </trkpt>
      <trkpt lat="45.06107" lon="2.80113">
        <ele>1280.4</ele>
        <time>2015-10-05T12:00:34Z</time>
      </trkpt>
      <trkpt lat="45.06104" lon="2.80096">
        <ele>1279.5</ele>
        <time>2015-10-05T12:00:38Z</time>
      </trkpt>
      <trkpt lat="45.06095" lon="2.80085">
        <ele>1280.1</ele>
        <time>2015-10-05T12:00:41Z</time>
      </trkpt>
      <trkpt lat="45.06087" lon="2.80072">
        <ele>1279.9</ele>
        <time>2015-10-05T12:00:44Z</time>
      </trkpt>
      <trkpt lat="45.0608" lon="2.80057">
        <ele>1279.5</ele>
        <time>2015-10-05T12:00:47Z</time>
      </trkpt>
      <trkpt lat="45.06073" lon="2.80047">
        <ele>1281.2</ele>
        <time>2015-10-05T12:00:49Z</time>
      </trkpt>
      <trkpt lat="45.06065" lon="2.80035">
        <ele>1282.1</ele>
        <time>2015-10-05T12:00:52Z</time>
      </trkpt>
      <trkpt lat="45.06058" lon="2.80023">
        <ele>1281.8</ele>
        <time>2015-10-05T12:00:56Z</time>
      </trkpt>
      <trkpt lat="45.06051" lon="2.80013">
        <ele>1282.7</ele>
        <time>2015-10-05T12:01:00Z</time>
      </trkpt>
      <trkpt lat="45.06044" lon="2.80005">
        <ele>1284</ele>
        <time>2015-10-05T12:01:04Z</time>
      </trkpt>
      <trkpt lat="45.06037" lon="2.79997">
        <ele>1285.2</ele>
        <time>2015-10-05T12:01:08Z</time>
      </trkpt>
      <trkpt lat="45.06029" lon="2.79986">
        <ele>1285.6</ele>
        <time>2015-10-05T12:01:13Z</time>
      </trkpt>
      <trkpt lat="45.06023" lon="2.79975">
        <ele>1285.8</ele>
        <time>2015-10-05T12:01:18Z</time>
      </trkpt>
      <trkpt lat="45.06019" lon="2.79962">
        <ele>1286.1</ele>
        <time>2015-10-05T12:01:22Z</time>
      </trkpt>
      <trkpt lat="45.06016" lon="2.79947">
        <ele>1285.9</ele>
        <time>2015-10-05T12:01:27Z</time>
      </trkpt>
      <trkpt lat="45.0601" lon="2.79937">
        <ele>1286.9</ele>
        <time>2015-10-05T12:01:32Z</time>
      </trkpt>
      <trkpt lat="45.06003" lon="2.79928">
        <ele>1287.6</ele>
        <time>2015-10-05T12:01:38Z</time>
      </trkpt>
      <trkpt lat="45.05995" lon="2.79918">
        <ele>1288.3</ele>
        <time>2015-10-05T12:01:46Z</time>
      </trkpt>
      <trkpt lat="45.05987" lon="2.79908">
        <ele>1289.6</ele>
        <time>2015-10-05T12:01:54Z</time>
      </trkpt>
      <trkpt lat="45.05982" lon="2.79897">
        <ele>1289.4</ele>
        <time>2015-10-05T12:01:59Z</time>
      </trkpt>
      <trkpt lat="45.05974" lon="2.79888">
        <ele>1290.3</ele>
        <time>2015-10-05T12:02:04Z</time>
      </trkpt>
      <trkpt lat="45.05974" lon="2.79875">
        <ele>1288.5</ele>
        <time>2015-10-05T12:03:05Z</time>
      </trkpt>
      <trkpt lat="45.05969" lon="2.79863">
        <ele>1288.2</ele>
        <time>2015-10-05T12:03:19Z</time>
      </trkpt>
      <trkpt lat="45.05961" lon="2.79856">
        <ele>1289.4</ele>
        <time>2015-10-05T12:03:26Z</time>
      </trkpt>
      <trkpt lat="45.05952" lon="2.79853">
        <ele>1291.4</ele>
        <time>2015-10-05T12:03:36Z</time>
      </trkpt>
      <trkpt lat="45.05944" lon="2.79846">
        <ele>1292.4</ele>
        <time>2015-10-05T12:03:44Z</time>
      </trkpt>
      <trkpt lat="45.05934" lon="2.79841">
        <ele>1294.8</ele>
        <time>2015-10-05T12:03:51Z</time>
      </trkpt>
      <trkpt lat="45.05925" lon="2.79841">
        <ele>1297.7</ele>
        <time>2015-10-05T12:03:59Z</time>
      </trkpt>
      <trkpt lat="45.05914" lon="2.79838">
        <ele>1300.5</ele>
        <time>2015-10-05T12:04:08Z</time>
      </trkpt>
      <trkpt lat="45.05905" lon="2.79839">
        <ele>1303</ele>
        <time>2015-10-05T12:04:17Z</time>
      </trkpt>
      <trkpt lat="45.05896" lon="2.79839">
        <ele>1305.2</ele>
        <time>2015-10-05T12:04:27Z</time>
      </trkpt>
      <trkpt lat="45.05887" lon="2.7984">
        <ele>1307.5</ele>
        <time>2015-10-05T12:04:37Z</time>
      </trkpt>
      <trkpt lat="45.05878" lon="2.79834">
        <ele>1308.1</ele>
        <time>2015-10-05T12:04:47Z</time>
      </trkpt>
      <trkpt lat="45.05871" lon="2.79827">
        <ele>1308.3</ele>
        <time>2015-10-05T12:04:55Z</time>
      </trkpt>
      <trkpt lat="45.05862" lon="2.79821">
        <ele>1309.1</ele>
        <time>2015-10-05T12:05:03Z</time>
      </trkpt>
      <trkpt lat="45.05854" lon="2.79815">
        <ele>1309.9</ele>
        <time>2015-10-05T12:05:09Z</time>
      </trkpt>
      <trkpt lat="45.05847" lon="2.79805">
        <ele>1310</ele>
        <time>2015-10-05T12:05:14Z</time>
      </trkpt>
      <trkpt lat="45.0584" lon="2.79798">
        <ele>1310.7</ele>
        <time>2015-10-05T12:05:18Z</time>
      </trkpt>
      <trkpt lat="45.05832" lon="2.7979">
        <ele>1311.7</ele>
        <time>2015-10-05T12:05:22Z</time>
      </trkpt>
      <trkpt lat="45.05825" lon="2.79782">
        <ele>1312.3</ele>
        <time>2015-10-05T12:05:27Z</time>
      </trkpt>
      <trkpt lat="45.05817" lon="2.79774">
        <ele>1313.1</ele>
        <time>2015-10-05T12:05:34Z</time>
      </trkpt>
      <trkpt lat="45.05807" lon="2.79769">
        <ele>1314.7</ele>
        <time>2015-10-05T12:05:44Z</time>
      </trkpt>
      <trkpt lat="45.05798" lon="2.79768">
        <ele>1317.2</ele>
        <time>2015-10-05T12:05:50Z</time>
      </trkpt>
      <trkpt lat="45.05788" lon="2.79765">
        <ele>1319.7</ele>
        <time>2015-10-05T12:05:57Z</time>
      </trkpt>
      <trkpt lat="45.05779" lon="2.79763">
        <ele>1322</ele>
        <time>2015-10-05T12:06:11Z</time>
      </trkpt>
      <trkpt lat="45.05774" lon="2.79752">
        <ele>1321.1</ele>
        <time>2015-10-05T12:06:45Z</time>
      </trkpt>
      <trkpt lat="45.05766" lon="2.79746">
        <ele>1321</ele>
        <time>2015-10-05T12:07:22Z</time>
      </trkpt>
      <trkpt lat="45.05756" lon="2.79741">
        <ele>1321.1</ele>
        <time>2015-10-05T12:07:32Z</time>
      </trkpt>
      <trkpt lat="45.05747" lon="2.7974">
        <ele>1322.2</ele>
        <time>2015-10-05T12:07:47Z</time>
      </trkpt>
      <trkpt lat="45.05738" lon="2.79737">
        <ele>1322.7</ele>
        <time>2015-10-05T12:08:01Z</time>
      </trkpt>
      <trkpt lat="45.05729" lon="2.79739">
        <ele>1324.8</ele>
        <time>2015-10-05T12:08:10Z</time>
      </trkpt>
      <trkpt lat="45.0572" lon="2.79735">
        <ele>1325.7</ele>
        <time>2015-10-05T12:08:20Z</time>
      </trkpt>
      <trkpt lat="45.05713" lon="2.79726">
        <ele>1326.6</ele>
        <time>2015-10-05T12:08:41Z</time>
      </trkpt>
      <trkpt lat="45.05705" lon="2.79718">
        <ele>1329</ele>
        <time>2015-10-05T12:08:49Z</time>
      </trkpt>
      <trkpt lat="45.05696" lon="2.79713">
        <ele>1333.1</ele>
        <time>2015-10-05T12:09:02Z</time>
      </trkpt>
      <trkpt lat="45.0569" lon="2.79702">
        <ele>1334.5</ele>
        <time>2015-10-05T12:09:17Z</time>
      </trkpt>
      <trkpt lat="45.05685" lon="2.79691">
        <ele>1334.9</ele>
        <time>2015-10-05T12:09:28Z</time>
      </trkpt>
      <trkpt lat="45.05679" lon="2.79682">
        <ele>1335.8</ele>
        <time>2015-10-05T12:09:37Z</time>
      </trkpt>
      <trkpt lat="45.05671" lon="2.79674">
        <ele>1337.5</ele>
        <time>2015-10-05T12:09:47Z</time>
      </trkpt>
      <trkpt lat="45.05662" lon="2.79669">
        <ele>1340</ele>
        <time>2015-10-05T12:10:03Z</time>
      </trkpt>
      <trkpt lat="45.05653" lon="2.79665">
        <ele>1342.7</ele>
        <time>2015-10-05T12:10:16Z</time>
      </trkpt>
      <trkpt lat="45.05648" lon="2.79654">
        <ele>1343</ele>
        <time>2015-10-05T12:10:27Z</time>
      </trkpt>
      <trkpt lat="45.05639" lon="2.79651">
        <ele>1345.7</ele>
        <time>2015-10-05T12:10:43Z</time>
      </trkpt>
      <trkpt lat="45.05634" lon="2.79639">
        <ele>1345.6</ele>
        <time>2015-10-05T12:11:00Z</time>
      </trkpt>
      <trkpt lat="45.05628" lon="2.7963">
        <ele>1347.2</ele>
        <time>2015-10-05T12:11:16Z</time>
      </trkpt>
      <trkpt lat="45.05622" lon="2.79618">
        <ele>1348.1</ele>
        <time>2015-10-05T12:11:30Z</time>
      </trkpt>
      <trkpt lat="45.05617" lon="2.79607">
        <ele>1348.7</ele>
        <time>2015-10-05T12:11:44Z</time>
      </trkpt>
      <trkpt lat="45.05613" lon="2.79593">
        <ele>1349.6</ele>
        <time>2015-10-05T12:11:52Z</time>
      </trkpt>
      <trkpt lat="45.05605" lon="2.79585">
        <ele>1351.3</ele>
        <time>2015-10-05T12:12:00Z</time>
      </trkpt>
      <trkpt lat="45.05597" lon="2.79578">
        <ele>1352.6</ele>
        <time>2015-10-05T12:12:08Z</time>
      </trkpt>
      <trkpt lat="45.05588" lon="2.7957">
        <ele>1354</ele>
        <time>2015-10-05T12:12:14Z</time>
      </trkpt>
      <trkpt lat="45.05586" lon="2.79557">
        <ele>1353.4</ele>
        <time>2015-10-05T12:12:18Z</time>
      </trkpt>
      <trkpt lat="45.05584" lon="2.79541">
        <ele>1352.8</ele>
        <time>2015-10-05T12:12:24Z</time>
      </trkpt>
      <trkpt lat="45.05579" lon="2.79536">
        <ele>1354</ele>
        <time>2015-10-05T12:12:40Z</time>
      </trkpt>
      <trkpt lat="45.05574" lon="2.79517">
        <ele>1354.7</ele>
        <time>2015-10-05T12:12:46Z</time>
      </trkpt>
      <trkpt lat="45.05565" lon="2.79495">
        <ele>1356.3</ele>
        <time>2015-10-05T12:12:52Z</time>
      </trkpt>
      <trkpt lat="45.05556" lon="2.79471">
        <ele>1357.9</ele>
        <time>2015-10-05T12:12:59Z</time>
      </trkpt>
      <trkpt lat="45.05549" lon="2.79449">
        <ele>1358.9</ele>
        <time>2015-10-05T12:13:39Z</time>
      </trkpt>
      <trkpt lat="45.05542" lon="2.79436">
        <ele>1360.4</ele>
        <time>2015-10-05T12:13:44Z</time>
      </trkpt>
      <trkpt lat="45.05538" lon="2.79426">
        <ele>1361.2</ele>
        <time>2015-10-05T12:13:44Z</time>
      </trkpt>
      <trkpt lat="45.05533" lon="2.79413">
        <ele>1362.1</ele>
        <time>2015-10-05T12:13:44Z</time>
      </trkpt>
      <trkpt lat="45.05529" lon="2.79401">
        <ele>1362.8</ele>
        <time>2015-10-05T12:13:44Z</time>
      </trkpt>
      <trkpt lat="45.05524" lon="2.79388">
        <ele>1363.5</ele>
        <time>2015-10-05T12:13:44Z</time>
      </trkpt>
      <trkpt lat="45.0552" lon="2.79376">
        <ele>1364.1</ele>
        <time>2015-10-05T12:13:44Z</time>
      </trkpt>
      <trkpt lat="45.05515" lon="2.79365">
        <ele>1364.8</ele>
        <time>2015-10-05T12:13:44Z</time>
      </trkpt>
      <trkpt lat="45.05509" lon="2.79355">
        <ele>1365.7</ele>
        <time>2015-10-05T12:13:44Z</time>
      </trkpt>
      <trkpt lat="45.05501" lon="2.79346">
        <ele>1366.9</ele>
        <time>2015-10-05T12:13:44Z</time>
      </trkpt>
      <trkpt lat="45.05493" lon="2.79336">
        <ele>1368.1</ele>
        <time>2015-10-05T12:13:44Z</time>
      </trkpt>
      <trkpt lat="45.05483" lon="2.7933">
        <ele>1369.4</ele>
        <time>2015-10-05T12:13:44Z</time>
      </trkpt>
      <trkpt lat="45.05472" lon="2.79326">
        <ele>1370.7</ele>
        <time>2015-10-05T12:13:44Z</time>
      </trkpt>
      <trkpt lat="45.05456" lon="2.79325">
        <ele>1371.5</ele>
        <time>2015-10-05T12:13:44Z</time>
      </trkpt>
      <trkpt lat="45.0544" lon="2.79327">
        <ele>1372.2</ele>
        <time>2015-10-05T12:13:44Z</time>
      </trkpt>
      <trkpt lat="45.05422" lon="2.79324">
        <ele>1372.8</ele>
        <time>2015-10-05T12:13:44Z</time>
      </trkpt>
      <trkpt lat="45.05402" lon="2.79322">
        <ele>1374.8</ele>
        <time>2015-10-05T12:13:44Z</time>
      </trkpt>
      <trkpt lat="45.05382" lon="2.79311">
        <ele>1377.5</ele>
        <time>2015-10-05T12:13:44Z</time>
      </trkpt>
      <trkpt lat="45.05372" lon="2.79299">
        <ele>1378.8</ele>
        <time>2015-10-05T12:13:44Z</time>
      </trkpt>
      <trkpt lat="45.05359" lon="2.79298">
        <ele>1380.3</ele>
        <time>2015-10-05T12:13:44Z</time>
      </trkpt>
      <trkpt lat="45.05344" lon="2.79298">
        <ele>1382.5</ele>
        <time>2015-10-05T12:13:44Z</time>
      </trkpt>
      <trkpt lat="45.05325" lon="2.79302">
        <ele>1385.2</ele>
        <time>2015-10-05T12:13:44Z</time>
      </trkpt>
    </trkseg>
  </trk>
</gpx>